KRAC/RAC METAR and TAF weather

Enter ICAO airport designator
Station Type Date Time Source
KRAC METAR 2020/06/03 15:53 UTC NOAA

KRAC 031553Z AUTO 27008KT 10SM FEW100 24/18 A2987 RMK AO2 SLP110 T02390183


Station Type Date Time Source
KRAC Decoded METAR 2020/06/03 15:53 UTC NOAA

BATTEN INTERNATIONAL AIRPORT, WI, United States (KRAC) 42-46N 87-49W 203M
Jun 03, 2020 - 11:53 AM EDT / 2020.06.03 1553 UTC
Wind: from the W (270 degrees) at 9 MPH (8 KT):0
Visibility: 10 mile(s):0
Sky conditions: mostly clear
Temperature: 75.0 F (23.9 C)
Dew Point: 64.9 F (18.3 C)
Relative Humidity: 70%
Pressure (altimeter): 29.87 in. Hg (1011 hPa)
ob: KRAC 031553Z AUTO 27008KT 10SM FEW100 24/18 A2987 RMK AO2 SLP110 T02390183
cycle: 16

Station Type Date Time Source
KRAC TAF UTC NOAA

Error!

Example: see airport list